createdAt,value
2017-10-15T00:00:18.974Z,18.30
2017-10-15T00:02:47.558Z,18.03
2017-10-15T00:05:15.997Z,15.13
2017-10-15T00:07:45.222Z,17.13
2017-10-15T00:10:13.669Z,16.10
2017-10-15T00:12:42.913Z,16.33
2017-10-15T00:15:11.401Z,16.30
2017-10-15T00:17:39.982Z,16.90
2017-10-15T00:20:08.464Z,16.57
2017-10-15T00:22:36.913Z,15.87
2017-10-15T00:25:06.355Z,15.83
2017-10-15T00:27:35.566Z,17.77
2017-10-15T00:30:04.034Z,18.47
2017-10-15T00:32:32.478Z,15.63
2017-10-15T00:35:01.786Z,17.40
2017-10-15T00:37:31.011Z,18.10
2017-10-15T00:39:59.477Z,16.63
2017-10-15T00:42:27.976Z,16.87
2017-10-15T00:44:56.565Z,18.13
2017-10-15T00:47:25.009Z,17.40
2017-10-15T00:49:54.344Z,19.27
2017-10-15T00:52:22.829Z,19.10
2017-10-15T00:54:51.404Z,18.40
2017-10-15T00:57:19.831Z,18.50
2017-10-15T00:59:48.275Z,17.33
2017-10-15T01:02:16.745Z,17.30
2017-10-15T01:04:45.197Z,18.60
2017-10-15T01:07:14.434Z,18.93
2017-10-15T01:09:42.873Z,18.17
2017-10-15T01:12:12.450Z,18.53
2017-10-15T01:14:40.889Z,20.80
2017-10-15T01:17:09.385Z,16.90
2017-10-15T01:19:37.815Z,19.97
2017-10-15T01:22:06.459Z,20.20
2017-10-15T01:24:34.930Z,18.23
2017-10-15T01:27:03.405Z,18.57
2017-10-15T01:29:31.897Z,19.30
2017-10-15T01:32:00.361Z,20.57
2017-10-15T01:34:28.801Z,17.50
2017-10-15T01:36:57.265Z,18.10
2017-10-15T01:39:25.706Z,19.57
2017-10-15T01:41:54.178Z,17.93
2017-10-15T01:44:23.386Z,19.20
2017-10-15T01:46:51.886Z,19.50
2017-10-15T01:49:20.349Z,19.83
2017-10-15T01:51:48.810Z,20.20
2017-10-15T01:54:18.054Z,21.93
2017-10-15T01:56:46.497Z,20.30
2017-10-15T01:59:15.735Z,19.63
2017-10-15T02:01:44.183Z,20.17
2017-10-15T02:04:13.419Z,20.60
2017-10-15T02:06:41.865Z,21.93
2017-10-15T02:09:11.093Z,20.87
2017-10-15T02:11:39.533Z,22.30
2017-10-15T02:14:08.766Z,22.20
2017-10-15T02:16:37.370Z,23.60
2017-10-15T02:19:05.844Z,22.97
2017-10-15T02:21:34.326Z,23.20
2017-10-15T02:24:02.885Z,24.57
2017-10-15T02:26:31.397Z,24.67
2017-10-15T02:28:59.846Z,22.73
2017-10-15T02:31:28.357Z,23.40
2017-10-15T02:33:57.429Z,25.20
2017-10-15T02:36:25.935Z,25.53
2017-10-15T02:38:54.382Z,25.30
2017-10-15T02:41:23.618Z,26.00
2017-10-15T02:43:52.059Z,25.93
2017-10-15T02:46:21.297Z,27.23
2017-10-15T02:48:49.743Z,26.80
2017-10-15T02:51:18.977Z,25.50
2017-10-15T02:53:47.428Z,26.33
2017-10-15T02:56:16.753Z,27.07
2017-10-15T02:58:45.247Z,28.10
2017-10-15T03:01:13.720Z,28.43
2017-10-15T03:03:42.207Z,26.10
2017-10-15T03:06:10.678Z,24.73
2017-10-15T03:08:39.134Z,23.83
2017-10-15T03:11:08.346Z,25.67
2017-10-15T03:13:36.823Z,25.17
2017-10-15T03:16:05.270Z,24.47
2017-10-15T03:18:34.500Z,27.40
2017-10-15T03:21:03.731Z,28.07
2017-10-15T03:23:32.203Z,25.93
2017-10-15T03:26:00.644Z,24.23
2017-10-15T03:28:29.883Z,26.80
2017-10-15T03:30:58.339Z,22.67
2017-10-15T03:33:27.575Z,25.17
2017-10-15T03:35:56.026Z,26.60
2017-10-15T03:38:25.360Z,26.80
2017-10-15T03:40:53.843Z,26.80
2017-10-15T03:43:22.305Z,26.10
2017-10-15T03:45:50.799Z,26.37
2017-10-15T03:48:19.673Z,23.90
2017-10-15T03:50:48.179Z,26.27
2017-10-15T03:53:16.631Z,26.00
2017-10-15T03:55:45.106Z,25.20
2017-10-15T03:58:14.319Z,24.27
2017-10-15T04:00:42.787Z,22.20
2017-10-15T04:03:11.297Z,22.73
2017-10-15T04:05:39.790Z,24.13
2017-10-15T04:08:08.241Z,22.70
2017-10-15T04:10:36.717Z,22.57
2017-10-15T04:13:05.952Z,24.50
2017-10-15T04:15:34.412Z,22.33
2017-10-15T04:18:02.854Z,22.70
2017-10-15T04:20:31.325Z,25.07
2017-10-15T04:22:59.771Z,22.20
2017-10-15T04:25:28.346Z,23.50
2017-10-15T04:27:56.794Z,22.83
2017-10-15T04:30:26.138Z,21.73
2017-10-15T04:32:54.628Z,22.80
2017-10-15T04:35:23.069Z,23.53
2017-10-15T04:37:52.408Z,23.70
2017-10-15T04:40:20.859Z,24.07
2017-10-15T04:42:49.324Z,23.13
2017-10-15T04:45:18.566Z,23.43
2017-10-15T04:47:47.042Z,23.07
2017-10-15T04:50:15.529Z,20.90
2017-10-15T04:52:44.009Z,22.60
2017-10-15T04:55:12.448Z,24.00
2017-10-15T04:57:41.685Z,23.77
2017-10-15T05:00:10.183Z,21.90
2017-10-15T05:02:38.718Z,22.00
2017-10-15T05:05:07.925Z,25.80
2017-10-15T05:07:37.158Z,24.00
2017-10-15T05:10:05.605Z,23.17
2017-10-15T05:12:34.836Z,25.70
2017-10-15T05:15:03.289Z,24.60
2017-10-15T05:17:32.526Z,25.30
2017-10-15T05:20:00.974Z,24.00
2017-10-15T05:22:30.297Z,22.47
2017-10-15T05:24:58.741Z,27.23
2017-10-15T05:27:27.958Z,26.07
2017-10-15T05:29:56.424Z,23.80
2017-10-15T05:32:25.634Z,29.27
2017-10-15T05:34:54.970Z,30.17
2017-10-15T05:37:23.658Z,31.60
2017-10-15T05:39:52.126Z,31.97
2017-10-15T05:42:20.617Z,32.40
2017-10-15T05:44:49.104Z,34.10
2017-10-15T05:47:17.585Z,37.97
2017-10-15T05:49:46.051Z,36.97
2017-10-15T05:52:14.501Z,37.90
2017-10-15T05:54:43.851Z,41.80
2017-10-15T05:57:12.343Z,39.50
2017-10-15T05:59:40.810Z,41.33
2017-10-15T06:02:09.262Z,37.87
2017-10-15T06:04:38.495Z,38.80
2017-10-15T06:07:06.947Z,39.73
2017-10-15T06:09:35.414Z,39.30
2017-10-15T06:12:04.658Z,39.20
2017-10-15T06:14:33.126Z,36.90
2017-10-15T06:17:01.574Z,39.80
2017-10-15T06:19:30.821Z,37.23
2017-10-15T06:21:59.345Z,36.20
2017-10-15T06:24:27.797Z,36.73
2017-10-15T06:26:56.369Z,38.13
2017-10-15T06:29:24.822Z,35.57
2017-10-15T06:31:53.290Z,37.00
2017-10-15T06:34:22.502Z,40.70
2017-10-15T06:36:51.020Z,35.37
2017-10-15T06:39:19.498Z,35.90
2017-10-15T06:41:47.972Z,34.93
2017-10-15T06:44:16.413Z,33.70
2017-10-15T06:46:45.760Z,32.60
2017-10-15T06:49:14.206Z,32.63
2017-10-15T06:51:43.422Z,33.07
2017-10-15T06:54:11.886Z,31.10
2017-10-15T06:56:41.106Z,30.00
2017-10-15T06:59:09.573Z,29.73
2017-10-15T07:01:38.786Z,29.97
2017-10-15T07:04:07.254Z,31.97
2017-10-15T07:06:35.780Z,32.83
2017-10-15T07:09:04.248Z,31.83
2017-10-15T07:11:32.731Z,31.73
2017-10-15T07:14:01.318Z,28.47
2017-10-15T07:16:29.757Z,32.10
2017-10-15T07:18:59.002Z,31.20
2017-10-15T07:21:27.445Z,28.30
2017-10-15T07:23:56.774Z,28.83
2017-10-15T07:26:25.259Z,29.03
2017-10-15T07:28:53.721Z,29.80
2017-10-15T07:31:22.175Z,29.73
2017-10-15T07:33:51.424Z,28.27
2017-10-15T07:36:19.896Z,26.97
2017-10-15T07:38:48.395Z,24.10
2017-10-15T07:41:16.862Z,24.33
2017-10-15T07:43:45.302Z,25.20
2017-10-15T07:46:14.541Z,25.47
2017-10-15T07:48:43.033Z,25.43
2017-10-15T07:51:11.609Z,25.90
2017-10-15T07:53:40.058Z,26.40
2017-10-15T07:56:09.295Z,27.07
2017-10-15T07:58:37.780Z,22.93
2017-10-15T08:01:06.244Z,23.73
2017-10-15T08:03:34.680Z,22.20
2017-10-15T08:06:03.145Z,22.03
2017-10-15T08:08:31.585Z,23.37
2017-10-15T08:11:00.089Z,23.90
2017-10-15T08:13:28.538Z,21.70
2017-10-15T08:15:57.744Z,23.50
2017-10-15T08:18:26.214Z,22.10
2017-10-15T08:20:55.427Z,22.17
2017-10-15T08:23:23.903Z,23.37
2017-10-15T08:25:52.353Z,24.97
2017-10-15T08:28:20.896Z,22.00
2017-10-15T08:30:49.379Z,21.20
2017-10-15T08:33:17.962Z,22.23
2017-10-15T08:35:46.401Z,22.20
2017-10-15T08:38:15.740Z,21.50
2017-10-15T08:40:44.194Z,20.90
2017-10-15T08:43:13.426Z,21.47
2017-10-15T08:45:41.869Z,19.60
2017-10-15T08:48:11.107Z,20.40
2017-10-15T08:50:39.554Z,20.30
2017-10-15T08:53:08.881Z,17.53
2017-10-15T08:55:37.321Z,21.20
2017-10-15T08:58:06.674Z,20.63
2017-10-15T09:00:35.156Z,16.77
2017-10-15T09:03:03.602Z,20.10
2017-10-15T09:05:32.939Z,19.50
2017-10-15T09:08:01.421Z,17.77
2017-10-15T09:10:30.007Z,17.50
2017-10-15T09:12:58.491Z,18.20
2017-10-15T09:15:27.078Z,18.37
2017-10-15T09:17:55.512Z,20.80
2017-10-15T09:20:24.740Z,20.03
2017-10-15T09:22:53.185Z,21.17
2017-10-15T09:25:22.531Z,20.90
2017-10-15T09:27:51.008Z,19.00
2017-10-15T09:30:19.479Z,21.30
2017-10-15T09:32:47.983Z,20.20
2017-10-15T09:35:16.986Z,20.87
2017-10-15T09:37:45.425Z,20.57
2017-10-15T09:40:14.657Z,22.43
2017-10-15T09:42:43.139Z,21.60
2017-10-15T09:45:11.620Z,20.90
2017-10-15T09:47:40.104Z,25.80
2017-10-15T09:50:08.549Z,25.50
2017-10-15T09:52:37.888Z,24.47
2017-10-15T09:55:06.370Z,19.53
2017-10-15T09:57:34.952Z,20.40
2017-10-15T10:00:03.393Z,18.17
2017-10-15T10:02:32.628Z,17.67
2017-10-15T10:05:01.116Z,20.03
2017-10-15T10:07:29.701Z,19.40
2017-10-15T10:09:58.178Z,21.57
2017-10-15T10:12:26.646Z,21.60
2017-10-15T10:14:55.098Z,15.57
2017-10-15T10:17:24.448Z,17.80
2017-10-15T10:19:52.928Z,20.03
2017-10-15T10:22:21.390Z,16.87
2017-10-15T10:24:49.839Z,14.40
2017-10-15T10:27:19.077Z,20.60
2017-10-15T10:29:47.522Z,16.70
2017-10-15T10:32:16.762Z,16.43
2017-10-15T10:34:45.206Z,18.17
2017-10-15T10:37:14.418Z,17.73
2017-10-15T10:39:43.758Z,17.33
2017-10-15T10:42:12.202Z,15.27
2017-10-15T10:44:41.532Z,17.60
2017-10-15T10:47:09.985Z,16.97
2017-10-15T10:49:39.321Z,17.57
2017-10-15T10:52:07.770Z,16.30
2017-10-15T10:54:36.997Z,15.90
2017-10-15T10:57:05.456Z,16.70
2017-10-15T10:59:33.918Z,17.73
2017-10-15T11:02:03.135Z,18.10
2017-10-15T11:04:31.601Z,14.97
2017-10-15T11:07:00.815Z,17.30
2017-10-15T11:09:29.332Z,15.60
2017-10-15T11:11:57.806Z,13.97
2017-10-15T11:14:26.277Z,14.83
2017-10-15T11:16:54.726Z,13.70
2017-10-15T11:19:23.972Z,13.53
2017-10-15T11:21:52.437Z,14.30
2017-10-15T11:24:20.877Z,13.77
2017-10-15T11:26:49.346Z,14.83
2017-10-15T11:29:17.900Z,13.83
2017-10-15T11:31:46.479Z,15.07
2017-10-15T11:34:14.967Z,15.07
2017-10-15T11:36:43.438Z,15.80
2017-10-15T11:39:11.877Z,15.80
2017-10-15T11:41:41.116Z,12.43
2017-10-15T11:44:09.616Z,13.30
2017-10-15T11:46:38.191Z,12.93
2017-10-15T11:49:06.643Z,11.90
2017-10-15T11:51:35.969Z,12.70
2017-10-15T11:54:04.474Z,12.00
2017-10-15T11:56:33.066Z,10.90
2017-10-15T11:59:01.621Z,8.87
2017-10-15T12:01:30.058Z,8.57
2017-10-15T12:03:59.293Z,8.40
2017-10-15T12:06:27.731Z,8.30
2017-10-15T12:08:56.211Z,10.33
2017-10-15T12:11:24.651Z,8.50
2017-10-15T12:13:53.119Z,8.17
2017-10-15T12:16:21.614Z,7.77
2017-10-15T12:18:50.074Z,7.50
2017-10-15T12:21:18.521Z,8.33
2017-10-15T12:23:46.981Z,6.77
2017-10-15T12:26:15.439Z,7.83
2017-10-15T12:28:43.917Z,7.90
2017-10-15T12:31:12.349Z,7.40
2017-10-15T12:33:40.811Z,8.60
2017-10-15T12:36:09.261Z,7.97
2017-10-15T12:38:37.718Z,6.90
2017-10-15T12:41:06.926Z,7.50
2017-10-15T12:43:35.370Z,8.27
2017-10-15T12:46:03.841Z,9.00
2017-10-15T12:48:32.278Z,7.37
2017-10-15T12:51:00.739Z,8.37
2017-10-15T12:53:29.977Z,7.87
2017-10-15T12:55:58.434Z,7.70
2017-10-15T12:58:26.883Z,7.93
2017-10-15T13:00:56.118Z,8.00
2017-10-15T13:03:24.563Z,7.37
2017-10-15T13:05:53.797Z,7.90
2017-10-15T13:08:22.238Z,7.73
2017-10-15T13:10:50.706Z,7.87
2017-10-15T13:13:19.266Z,6.17
2017-10-15T13:15:47.724Z,8.07
2017-10-15T13:18:16.223Z,8.00
2017-10-15T13:20:44.808Z,7.73
2017-10-15T13:23:13.255Z,7.40
2017-10-15T13:25:42.494Z,7.57
2017-10-15T13:28:10.934Z,7.67
2017-10-15T13:30:40.141Z,8.03
2017-10-15T13:33:09.373Z,7.43
2017-10-15T13:35:37.815Z,7.60
2017-10-15T13:38:07.046Z,7.57
2017-10-15T13:40:35.485Z,8.67
2017-10-15T13:43:04.832Z,8.20
2017-10-15T13:45:33.313Z,8.10
2017-10-15T13:48:01.794Z,7.80
2017-10-15T13:50:30.238Z,8.63
2017-10-15T13:52:59.470Z,7.90
2017-10-15T13:55:27.958Z,7.33
2017-10-15T13:57:56.540Z,7.73
2017-10-15T14:00:24.994Z,8.83
2017-10-15T14:02:54.222Z,8.80
2017-10-15T14:05:22.678Z,8.50
2017-10-15T14:07:51.902Z,8.63
2017-10-15T14:10:20.342Z,8.10
2017-10-15T14:12:49.573Z,7.90
2017-10-15T14:15:18.081Z,8.00
2017-10-15T14:17:46.557Z,7.57
2017-10-15T14:20:14.998Z,8.70
2017-10-15T14:22:44.237Z,10.20
2017-10-15T14:25:12.719Z,9.70
2017-10-15T14:27:41.153Z,8.50
2017-10-15T14:30:10.369Z,9.50
2017-10-15T14:32:38.883Z,10.53
2017-10-15T14:35:07.354Z,10.00
2017-10-15T14:37:35.846Z,11.17
2017-10-15T14:40:04.429Z,10.40
2017-10-15T14:42:32.869Z,10.43
2017-10-15T14:45:02.104Z,12.23
2017-10-15T14:47:30.554Z,11.20
2017-10-15T14:49:59.794Z,10.93
2017-10-15T14:52:28.241Z,11.70
2017-10-15T14:54:57.577Z,11.47
2017-10-15T14:57:26.044Z,11.13
2017-10-15T14:59:54.531Z,10.90
2017-10-15T15:02:23.019Z,12.13
2017-10-15T15:04:51.466Z,12.10
2017-10-15T15:07:20.701Z,14.37
2017-10-15T15:09:49.141Z,14.90
2017-10-15T15:12:18.378Z,13.57
2017-10-15T15:14:46.825Z,15.40
2017-10-15T15:17:16.203Z,14.67
2017-10-15T15:19:44.661Z,18.60
2017-10-15T15:22:13.123Z,16.90
2017-10-15T15:24:41.582Z,16.20
2017-10-15T15:27:10.061Z,18.87
2017-10-15T15:29:39.269Z,20.07
2017-10-15T15:32:07.733Z,18.10
2017-10-15T15:34:36.942Z,19.93
2017-10-15T15:37:06.265Z,19.53
2017-10-15T15:39:34.714Z,18.93
2017-10-15T15:42:03.963Z,21.30
2017-10-15T15:44:34.047Z,21.80
2017-10-15T15:47:02.490Z,23.20
2017-10-15T15:49:30.953Z,21.00
2017-10-15T15:51:59.397Z,23.03
2017-10-15T15:54:27.866Z,24.13
2017-10-15T15:56:57.078Z,22.40
2017-10-15T15:59:25.541Z,24.80
2017-10-15T16:01:54.758Z,23.83
2017-10-15T16:04:23.226Z,25.77
2017-10-15T16:06:52.458Z,26.20
2017-10-15T16:09:20.930Z,28.10
2017-10-15T16:11:49.374Z,27.30
2017-10-15T16:14:18.609Z,26.57
2017-10-15T16:16:47.105Z,26.67
2017-10-15T16:19:15.574Z,27.00
2017-10-15T16:21:44.017Z,30.10
2017-10-15T16:24:13.254Z,28.97
2017-10-15T16:26:41.739Z,28.00
2017-10-15T16:29:10.190Z,26.50
2017-10-15T16:31:39.421Z,27.77
2017-10-15T16:34:07.885Z,27.23
2017-10-15T16:36:36.353Z,27.93
2017-10-15T16:39:05.593Z,29.67
2017-10-15T16:41:34.058Z,28.20
2017-10-15T16:44:02.505Z,30.90
2017-10-15T16:46:31.733Z,31.60
2017-10-15T16:49:00.233Z,32.87
2017-10-15T16:51:28.697Z,31.50
2017-10-15T16:53:57.199Z,33.20
2017-10-15T16:56:25.686Z,33.90
2017-10-15T16:58:54.167Z,33.80
2017-10-15T17:01:22.645Z,30.63
2017-10-15T17:03:51.089Z,34.37
2017-10-15T17:06:20.297Z,31.40
2017-10-15T17:08:49.530Z,25.73
2017-10-15T17:11:17.978Z,31.23
2017-10-15T17:13:47.237Z,30.73
2017-10-15T17:16:15.677Z,31.83
2017-10-15T17:18:44.147Z,29.20
2017-10-15T17:21:12.586Z,26.40
2017-10-15T17:23:41.066Z,33.30
2017-10-15T17:26:09.513Z,31.00
2017-10-15T17:28:38.000Z,28.07
2017-10-15T17:31:06.451Z,29.00
2017-10-15T17:33:34.922Z,29.23
2017-10-15T17:36:04.130Z,32.03
2017-10-15T17:38:33.386Z,32.90
2017-10-15T17:41:01.830Z,30.53
2017-10-15T17:43:30.297Z,32.27
2017-10-15T17:45:58.742Z,30.13
2017-10-15T17:48:27.186Z,32.10
2017-10-15T17:50:56.182Z,28.40
2017-10-15T17:53:24.666Z,37.30
2017-10-15T17:55:53.129Z,31.90
2017-10-15T17:58:21.585Z,34.87
2017-10-15T18:00:50.827Z,35.73
2017-10-15T18:03:19.275Z,33.67
2017-10-15T18:05:48.509Z,33.93
2017-10-15T18:08:16.983Z,31.93
2017-10-15T18:10:45.452Z,34.80
2017-10-15T18:13:13.893Z,36.90
2017-10-15T18:15:42.361Z,36.80
2017-10-15T18:18:10.819Z,39.10
2017-10-15T18:20:39.477Z,37.10
2017-10-15T18:23:07.966Z,37.47
2017-10-15T18:25:36.465Z,38.37
2017-10-15T18:28:05.051Z,37.63
2017-10-15T18:30:33.746Z,35.43
2017-10-15T18:33:02.194Z,36.70
2017-10-15T18:35:30.700Z,38.07
2017-10-15T18:37:59.146Z,31.77
2017-10-15T18:40:28.397Z,37.37
2017-10-15T18:42:56.839Z,35.73
2017-10-15T18:45:25.301Z,36.47
2017-10-15T18:47:54.538Z,37.70
2017-10-15T18:50:23.021Z,36.97
2017-10-15T18:52:51.470Z,33.70
2017-10-15T18:55:20.713Z,35.37
2017-10-15T18:57:49.161Z,38.07
2017-10-15T19:00:17.666Z,34.53
2017-10-15T19:02:46.115Z,34.17
2017-10-15T19:05:15.454Z,38.50
2017-10-15T19:07:43.929Z,38.40
2017-10-15T19:10:12.411Z,36.47
2017-10-15T19:12:40.878Z,35.90
2017-10-15T19:15:09.330Z,35.13
2017-10-15T19:17:38.561Z,34.10
2017-10-15T19:20:07.064Z,33.07
2017-10-15T19:22:35.570Z,33.43
2017-10-15T19:25:04.009Z,32.10
2017-10-15T19:27:32.473Z,31.57
2017-10-15T19:30:01.684Z,32.00
2017-10-15T19:32:30.150Z,33.73
2017-10-15T19:34:59.354Z,33.27
2017-10-15T19:37:28.581Z,37.00
2017-10-15T19:39:57.070Z,34.70
2017-10-15T19:42:25.532Z,29.77
2017-10-15T19:44:54.034Z,28.10
2017-10-15T19:47:22.618Z,32.60
2017-10-15T19:49:51.099Z,29.63
2017-10-15T19:52:19.582Z,29.87
2017-10-15T19:54:48.024Z,24.50
2017-10-15T19:57:17.256Z,27.00
2017-10-15T19:59:45.845Z,30.77
2017-10-15T20:02:14.327Z,25.03
2017-10-15T20:04:42.796Z,26.53
2017-10-15T20:07:11.242Z,26.60
2017-10-15T20:09:40.477Z,27.10
2017-10-15T20:12:08.921Z,26.57
2017-10-15T20:14:38.171Z,22.50
2017-10-15T20:17:06.614Z,24.20
2017-10-15T20:19:35.851Z,22.60
2017-10-15T20:22:04.303Z,23.80
2017-10-15T20:24:33.581Z,22.43
2017-10-15T20:27:02.017Z,24.10
2017-10-15T20:29:30.477Z,21.63
2017-10-15T20:31:58.913Z,25.43
2017-10-15T20:34:27.460Z,21.97
2017-10-15T20:36:55.901Z,26.10
2017-10-15T20:39:25.139Z,23.57
2017-10-15T20:41:53.585Z,22.73
2017-10-15T20:44:22.801Z,22.90
2017-10-15T20:46:51.261Z,24.80
2017-10-15T20:49:20.466Z,22.90
2017-10-15T20:51:49.701Z,23.57
2017-10-15T20:54:18.141Z,23.73
2017-10-15T20:56:47.369Z,21.30
2017-10-15T20:59:15.864Z,21.40
2017-10-15T21:01:44.334Z,20.87
2017-10-15T21:04:12.802Z,25.07
2017-10-15T21:06:41.301Z,20.93
2017-10-15T21:09:09.751Z,21.10
2017-10-15T21:11:38.982Z,19.47
2017-10-15T21:14:07.430Z,21.13
2017-10-15T21:16:36.661Z,19.40
2017-10-15T21:19:05.155Z,18.43
2017-10-15T21:21:33.635Z,19.83
2017-10-15T21:24:02.097Z,18.53
2017-10-15T21:26:30.542Z,17.40
2017-10-15T21:28:59.005Z,18.37
2017-10-15T21:31:27.563Z,17.47
2017-10-15T21:33:56.025Z,18.73
2017-10-15T21:36:24.480Z,19.43
2017-10-15T21:38:53.714Z,16.10
2017-10-15T21:41:22.157Z,18.77
2017-10-15T21:43:51.389Z,17.93
2017-10-15T21:46:19.913Z,19.20
2017-10-15T21:48:48.374Z,16.70
2017-10-15T21:51:17.675Z,16.20
2017-10-15T21:53:46.263Z,17.97
2017-10-15T21:56:14.709Z,18.37
2017-10-15T21:58:43.218Z,17.93
2017-10-15T22:01:11.661Z,18.33
2017-10-15T22:03:40.865Z,16.80
2017-10-15T22:06:10.104Z,17.80
2017-10-15T22:08:38.545Z,17.50
2017-10-15T22:11:07.887Z,17.97
2017-10-15T22:13:36.367Z,20.17
2017-10-15T22:16:04.946Z,19.10
2017-10-15T22:18:38.902Z,16.93
2017-10-15T22:21:12.930Z,18.20
2017-10-15T22:23:42.173Z,16.43
2017-10-15T22:26:10.638Z,17.73
2017-10-15T22:28:39.094Z,18.07
2017-10-15T22:31:08.438Z,18.13
2017-10-15T22:33:36.886Z,16.57
2017-10-15T22:36:06.109Z,18.83
2017-10-15T22:38:34.554Z,16.80
2017-10-15T22:41:03.789Z,20.53
2017-10-15T22:43:32.282Z,17.67
2017-10-15T22:46:00.750Z,17.23
2017-10-15T22:48:29.194Z,18.23
2017-10-15T22:50:58.411Z,18.13
2017-10-15T22:53:27.638Z,17.60
2017-10-15T22:55:56.084Z,17.37
2017-10-15T22:58:25.313Z,17.30
2017-10-15T23:00:53.804Z,18.47
2017-10-15T23:03:22.277Z,18.27
2017-10-15T23:05:50.730Z,14.40
2017-10-15T23:08:20.066Z,16.40
2017-10-15T23:10:48.554Z,15.73
2017-10-15T23:13:17.017Z,15.67
2017-10-15T23:15:45.461Z,15.90
2017-10-15T23:18:13.928Z,16.37
2017-10-15T23:20:42.374Z,15.23
2017-10-15T23:23:10.845Z,17.57
2017-10-15T23:25:39.289Z,16.50
2017-10-15T23:28:07.766Z,16.73
2017-10-15T23:30:36.302Z,16.37
2017-10-15T23:33:04.748Z,18.73
2017-10-15T23:35:33.983Z,16.93
2017-10-15T23:38:02.434Z,16.60
2017-10-15T23:40:31.671Z,16.67
2017-10-15T23:43:00.152Z,16.30
2017-10-15T23:45:28.617Z,16.37
2017-10-15T23:47:57.057Z,16.33
2017-10-15T23:50:26.297Z,15.60
2017-10-15T23:52:54.799Z,18.43
2017-10-15T23:55:23.388Z,17.33
2017-10-15T23:57:51.834Z,17.27
